Time;durP1;ratioP1;P1;durP2;ratioP2;P2;SDS_P1;SDS_P2;PMS_P1;PMS_P2;Temp;Humidity;BMP_temperature;BMP_pressure;BME280_temperature;BME280_humidity;BME280_pressure;Samples;Min_cycle;Max_cycle;Signal;HPM_P1;HPM_P2
2022/04/27 00:01:37;;;;;;;6.93;4.17;;;6.80;99.90;;;;;;5135137;27;20296;-87
2022/04/27 00:04:04;;;;;;;6.13;4.10;;;6.80;99.90;;;;;;5135140;27;20267;-89
2022/04/27 00:06:31;;;;;;;8.23;4.43;;;6.80;99.90;;;;;;5134904;27;20221;-88
2022/04/27 00:08:58;;;;;;;8.53;4.37;;;6.70;99.90;;;;;;5134589;27;20190;-89
2022/04/27 00:11:25;;;;;;;10.17;4.97;;;6.60;99.90;;;;;;5135085;27;20269;-89
2022/04/27 00:13:54;;;;;;;9.57;5.20;;;6.60;99.90;;;;;;5135075;27;20225;-88
2022/04/27 00:16:20;;;;;;;9.60;5.50;;;6.60;99.90;;;;;;5134847;27;20284;-87
2022/04/27 00:18:47;;;;;;;7.77;5.00;;;6.60;96.90;;;;;;5134967;27;20246;-88
2022/04/27 00:21:15;;;;;;;9.13;5.00;;;6.60;93.60;;;;;;5134570;27;20197;-88
2022/04/27 00:23:41;;;;;;;8.57;4.83;;;6.60;94.10;;;;;;5134943;27;20259;-89
2022/04/27 00:26:09;;;;;;;7.70;4.63;;;6.60;91.30;;;;;;5134656;27;20268;-87
2022/04/27 00:28:36;;;;;;;9.10;5.00;;;6.60;91.00;;;;;;5134361;27;20194;-89
2022/04/27 00:31:04;;;;;;;7.80;4.80;;;6.60;92.10;;;;;;5135016;27;20206;-88
2022/04/27 00:33:32;;;;;;;7.27;4.80;;;6.60;96.20;;;;;;5135043;27;20243;-89
2022/04/27 00:35:59;;;;;;;5.97;4.53;;;6.60;95.80;;;;;;5134606;27;20277;-89
2022/04/27 00:38:26;;;;;;;9.40;4.93;;;6.60;94.80;;;;;;5134712;27;20620;-88
2022/04/27 00:40:53;;;;;;;8.83;6.07;;;6.60;91.30;;;;;;5134575;27;20273;-89
2022/04/27 00:43:36;;;;;;;9.57;5.27;;;6.60;90.00;;;;;;5134230;27;20717;-89
2022/04/27 00:46:04;;;;;;;8.60;5.23;;;6.60;99.90;;;;;;5134325;27;20238;-90
2022/04/27 00:48:31;;;;;;;8.67;5.53;;;6.60;81.10;;;;;;5134668;27;20642;-88
2022/04/27 00:51:00;;;;;;;8.27;5.47;;;6.50;86.50;;;;;;5134545;27;20251;-88
2022/04/27 00:53:28;;;;;;;8.10;5.67;;;6.40;99.90;;;;;;5134279;27;20194;-89
2022/04/27 00:55:56;;;;;;;9.60;5.70;;;6.40;99.90;;;;;;5134361;27;20252;-88
2022/04/27 00:58:25;;;;;;;10.07;5.63;;;6.30;99.90;;;;;;5134327;27;20190;-89
2022/04/27 01:00:52;;;;;;;9.73;6.03;;;6.30;99.90;;;;;;5134386;27;20281;-89
2022/04/27 01:03:20;;;;;;;9.20;5.27;;;6.20;99.90;;;;;;5134478;27;20201;-89
2022/04/27 01:05:49;;;;;;;7.53;5.20;;;6.10;99.90;;;;;;5134089;27;20237;-88
2022/04/27 01:08:17;;;;;;;11.17;5.50;;;6.00;99.90;;;;;;5134079;27;20190;-89
2022/04/27 01:10:44;;;;;;;10.97;5.43;;;5.90;99.90;;;;;;5134355;27;20189;-89
2022/04/27 01:13:13;;;;;;;8.37;5.33;;;5.90;99.90;;;;;;5133868;27;20273;-89
2022/04/27 01:15:41;;;;;;;9.57;5.77;;;5.90;99.90;;;;;;5134312;27;20236;-88
2022/04/27 01:18:09;;;;;;;11.67;5.17;;;5.90;99.90;;;;;;5134235;27;20284;-89
2022/04/27 01:20:43;;;;;;;7.93;5.03;;;5.90;99.90;;;;;;5134169;27;20190;-90
2022/04/27 01:23:25;;;;;;;10.60;5.87;;;5.90;99.90;;;;;;5134867;27;20608;-88
2022/04/27 01:25:55;;;;;;;10.43;5.47;;;5.90;99.90;;;;;;5134111;28;20213;-89
2022/04/27 01:28:37;;;;;;;8.27;5.30;;;5.90;99.90;;;;;;5134285;28;20613;-89
2022/04/27 01:31:06;;;;;;;9.63;5.00;;;5.90;99.90;;;;;;5134332;28;20190;-88
2022/04/27 01:33:34;;;;;;;10.83;5.87;;;5.90;99.90;;;;;;5133899;28;20221;-88
2022/04/27 01:36:03;;;;;;;10.07;6.17;;;5.80;99.90;;;;;;5133534;27;20718;-87
2022/04/27 01:38:34;;;;;;;10.43;5.63;;;5.80;99.90;;;;;;5133930;28;20230;-89
2022/04/27 01:41:02;;;;;;;9.63;5.57;;;5.90;99.90;;;;;;5133747;28;20225;-89
2022/04/27 01:43:30;;;;;;;9.90;6.00;;;5.80;99.90;;;;;;5133754;28;20279;-89
2022/04/27 01:45:57;;;;;;;10.53;6.13;;;5.80;99.90;;;;;;5133532;28;20226;-88
2022/04/27 01:48:24;;;;;;;10.43;6.07;;;5.80;99.90;;;;;;5133826;28;20198;-88
2022/04/27 01:50:51;;;;;;;9.73;5.33;;;5.80;99.90;;;;;;5133626;28;20196;-89
2022/04/27 01:56:04;;;;;;;9.60;5.83;;;5.80;99.90;;;;;;5133698;28;20197;-89
2022/04/27 01:58:32;;;;;;;9.27;5.23;;;5.80;99.90;;;;;;5133723;28;20243;-89
2022/04/27 02:00:59;;;;;;;10.20;5.93;;;5.80;99.90;;;;;;5133881;27;20706;-89
2022/04/27 02:03:26;;;;;;;9.93;6.00;;;5.80;99.90;;;;;;5133497;28;20225;-88
2022/04/27 02:05:53;;;;;;;10.60;5.93;;;5.90;99.90;;;;;;5133508;28;20233;-88
2022/04/27 02:08:22;;;;;;;10.20;6.23;;;5.90;99.90;;;;;;5133655;28;20209;-89
2022/04/27 02:10:49;;;;;;;10.07;6.40;;;6.00;99.90;;;;;;5133707;28;20247;-89
2022/04/27 02:13:15;;;;;;;8.43;6.07;;;6.00;99.90;;;;;;5133533;28;20243;-88
2022/04/27 02:15:43;;;;;;;13.30;5.77;;;6.10;99.90;;;;;;5133368;28;20230;-89
2022/04/27 02:18:10;;;;;;;8.10;5.57;;;6.10;99.90;;;;;;5133805;28;20216;-87
2022/04/27 02:20:37;;;;;;;10.83;5.97;;;6.20;99.90;;;;;;5133722;28;20229;-88
2022/04/27 02:23:04;;;;;;;8.60;5.67;;;6.30;99.90;;;;;;5133419;28;20293;-88
2022/04/27 02:25:32;;;;;;;9.23;5.13;;;6.30;99.90;;;;;;5133304;28;20750;-89
2022/04/27 02:27:59;;;;;;;8.83;5.47;;;6.40;99.90;;;;;;5133605;28;20203;-89
2022/04/27 02:30:26;;;;;;;8.20;5.67;;;6.40;99.90;;;;;;5133207;27;20338;-88
2022/04/27 02:32:53;;;;;;;9.03;5.47;;;6.50;99.90;;;;;;5136774;27;20202;-88
2022/04/27 02:35:21;;;;;;;7.90;5.60;;;6.50;99.90;;;;;;5137083;27;20247;-89
2022/04/27 02:37:48;;;;;;;7.83;5.10;;;6.60;99.90;;;;;;5136890;27;20586;-88
2022/04/27 02:40:15;;;;;;;6.80;4.63;;;6.60;99.90;;;;;;5136585;27;20222;-88
2022/04/27 02:42:43;;;;;;;6.97;4.90;;;6.60;99.90;;;;;;5137270;27;20246;-89
2022/04/27 02:45:10;;;;;;;6.63;4.83;;;6.60;99.90;;;;;;5136652;27;20240;-89
2022/04/27 02:47:37;;;;;;;7.83;4.70;;;6.60;99.90;;;;;;5136839;27;20224;-88
2022/04/27 02:52:49;;;;;;;8.00;5.07;;;6.70;99.90;;;;;;5136585;27;20174;-88
2022/04/27 02:55:16;;;;;;;5.87;4.50;;;6.70;99.90;;;;;;5136563;27;20246;-88
2022/04/27 02:57:44;;;;;;;5.73;4.40;;;6.70;99.90;;;;;;5136361;27;20190;-89
2022/04/27 03:00:12;;;;;;;7.23;4.70;;;6.70;99.90;;;;;;5136676;27;20277;-88
2022/04/27 03:02:41;;;;;;;7.53;4.77;;;6.80;99.90;;;;;;5136553;27;20277;-89
2022/04/27 03:05:08;;;;;;;7.13;4.57;;;6.80;99.90;;;;;;5136164;27;20197;-88
2022/04/27 03:07:35;;;;;;;8.27;4.60;;;6.70;99.90;;;;;;5136615;27;20635;-89
2022/04/27 03:10:03;;;;;;;9.13;4.80;;;6.70;99.90;;;;;;5135938;27;20271;-88
2022/04/27 03:12:30;;;;;;;9.10;5.27;;;6.70;99.90;;;;;;5135888;27;20202;-88
2022/04/27 03:14:58;;;;;;;10.33;4.70;;;6.70;99.90;;;;;;5135837;27;20190;-88
2022/04/27 03:17:25;;;;;;;6.43;4.53;;;6.70;99.90;;;;;;5136277;27;20254;-89
2022/04/27 03:19:52;;;;;;;7.43;4.83;;;6.60;99.90;;;;;;5136156;27;20240;-88
2022/04/27 03:22:19;;;;;;;6.73;4.80;;;6.60;99.90;;;;;;5136117;27;20201;-90
2022/04/27 03:24:45;;;;;;;8.30;5.30;;;6.50;99.90;;;;;;5136513;27;20194;-89
2022/04/27 03:27:12;;;;;;;8.33;5.33;;;6.30;99.90;;;;;;5136364;27;20271;-89
2022/04/27 03:29:39;;;;;;;11.40;4.80;;;6.20;99.90;;;;;;5136101;27;20261;-89
2022/04/27 03:32:10;;;;;;;7.60;4.77;;;6.10;99.90;;;;;;5136122;27;20286;-88
2022/04/27 03:34:37;;;;;;;6.93;4.83;;;6.10;99.90;;;;;;5135739;27;20277;-88
2022/04/27 03:37:04;;;;;;;8.60;5.30;;;6.00;99.90;;;;;;5136006;27;20229;-89
2022/04/27 03:39:31;;;;;;;14.83;5.13;;;5.90;99.90;;;;;;5135908;27;20224;-89
2022/04/27 03:41:58;;;;;;;8.37;5.03;;;5.80;99.90;;;;;;5135009;27;20278;-89
2022/04/27 03:44:25;;;;;;;11.23;4.93;;;5.80;99.90;;;;;;5135129;27;20233;-90
2022/04/27 03:46:52;;;;;;;8.80;4.80;;;5.80;99.90;;;;;;5135319;27;20297;-90
2022/04/27 03:49:20;;;;;;;8.93;5.03;;;5.80;99.90;;;;;;5135590;27;20258;-88
2022/04/27 03:51:47;;;;;;;7.77;5.43;;;5.90;99.90;;;;;;5135784;27;20194;-88
2022/04/27 03:54:14;;;;;;;9.47;5.57;;;6.00;99.90;;;;;;5135459;27;20378;-87
2022/04/27 03:56:41;;;;;;;6.80;4.20;;;6.00;99.90;;;;;;5135257;27;20194;-88
2022/04/27 03:59:08;;;;;;;6.43;4.87;;;6.00;99.90;;;;;;5135129;27;20202;-88
2022/04/27 04:01:35;;;;;;;7.43;5.03;;;6.10;99.90;;;;;;5135524;27;20201;-88
2022/04/27 04:04:02;;;;;;;9.77;5.20;;;6.10;99.90;;;;;;5135148;27;20228;-88
2022/04/27 04:06:30;;;;;;;10.23;6.07;;;6.30;99.90;;;;;;5134901;27;20310;-87
2022/04/27 04:08:57;;;;;;;8.23;5.00;;;6.40;99.90;;;;;;5134668;27;20204;-88
2022/04/27 04:11:24;;;;;;;7.67;4.83;;;6.40;99.90;;;;;;5134858;27;20228;-88
2022/04/27 04:13:51;;;;;;;7.67;4.90;;;6.50;99.90;;;;;;5134831;27;20274;-90
2022/04/27 04:16:18;;;;;;;8.10;5.07;;;6.50;99.90;;;;;;5135195;27;20227;-88
2022/04/27 04:18:45;;;;;;;9.87;5.77;;;6.60;99.90;;;;;;5134919;27;20283;-88
2022/04/27 04:21:12;;;;;;;9.60;5.20;;;6.60;99.90;;;;;;5134285;27;20251;-87
2022/04/27 04:23:40;;;;;;;8.68;5.70;;;6.70;99.90;;;;;;5133564;27;20849;-88
2022/04/27 04:28:51;;;;;;;9.05;5.63;;;7.00;1.00;;;;;;5134127;27;20422;-88
2022/04/27 04:31:18;;;;;;;7.63;5.43;;;7.10;1.00;;;;;;5134500;27;20269;-89
2022/04/27 04:33:45;;;;;;;8.57;5.17;;;7.10;1.00;;;;;;5134706;27;20278;-88
2022/04/27 04:36:12;;;;;;;9.93;5.33;;;7.10;99.90;;;;;;5133929;27;20529;-89
2022/04/27 04:38:41;;;;;;;8.83;5.10;;;7.20;99.90;;;;;;5133857;27;20196;-88
2022/04/27 04:41:08;;;;;;;8.33;5.60;;;7.20;99.90;;;;;;5134042;27;20226;-87
2022/04/27 04:43:35;;;;;;;9.30;6.20;;;7.20;99.90;;;;;;5134348;27;20704;-88
2022/04/27 04:46:02;;;;;;;9.67;5.57;;;7.20;99.90;;;;;;5134112;27;20231;-88
2022/04/27 04:48:28;;;;;;;10.03;5.60;;;7.20;99.90;;;;;;5133101;27;20221;-88
2022/04/27 04:50:55;;;;;;;9.40;5.60;;;7.20;99.90;;;;;;5134175;27;20292;-89
2022/04/27 04:53:22;;;;;;;9.70;6.00;;;7.20;99.90;;;;;;5134061;27;20209;-89
2022/04/27 04:55:51;;;;;;;8.67;5.63;;;7.30;1.00;;;;;;5138978;27;20204;-88
2022/04/27 04:58:18;;;;;;;9.40;5.37;;;7.30;1.00;;;;;;5133055;27;20195;-89
2022/04/27 05:00:45;;;;;;;8.90;5.17;;;7.30;1.00;;;;;;5136273;27;20546;-89
2022/04/27 05:03:12;;;;;;;9.90;5.20;;;7.40;1.00;;;;;;5132814;27;20664;-87
2022/04/27 05:05:40;;;;;;;8.60;6.00;;;7.50;1.00;;;;;;5132700;27;20711;-86
2022/04/27 05:08:08;;;;;;;10.03;6.33;;;7.60;1.00;;;;;;5132738;27;20198;-87
2022/04/27 05:10:36;;;;;;;15.27;8.00;;;7.80;1.00;;;;;;5133457;27;20196;-87
2022/04/27 05:13:04;;;;;;;15.33;7.30;;;7.80;1.00;;;;;;5133440;27;20227;-86
2022/04/27 05:15:32;;;;;;;10.67;6.37;;;7.90;1.00;;;;;;5133495;27;20653;-86
2022/04/27 05:17:59;;;;;;;11.33;7.30;;;8.00;1.00;;;;;;5133350;27;20612;-87
2022/04/27 05:20:25;;;;;;;15.73;7.37;;;8.00;1.00;;;;;;5133745;27;20277;-87
2022/04/27 05:22:52;;;;;;;11.07;6.80;;;8.10;1.00;;;;;;5133593;27;20235;-86
2022/04/27 05:25:19;;;;;;;10.73;6.40;;;8.20;1.00;;;;;;5133279;27;20229;-87
2022/04/27 05:27:46;;;;;;;9.33;6.43;;;8.30;1.00;;;;;;5133559;28;20260;-86
2022/04/27 05:33:17;;;;;;;9.93;6.07;;;8.60;1.00;;;;;;5058571;28;20185;-86
2022/04/27 05:35:44;;;;;;;8.33;5.57;;;9.00;1.00;;;;;;5049977;28;20227;-87
2022/04/27 05:38:12;;;;;;;13.47;5.87;;;10.10;3.50;;;;;;5078673;28;20291;-86
2022/04/27 05:40:42;;;;;;;15.87;6.53;;;10.70;1.00;;;;;;5112903;28;20260;-85
2022/04/27 05:43:09;;;;;;;17.97;6.87;;;10.80;99.90;;;;;;5112510;28;20187;-85
2022/04/27 05:45:37;;;;;;;13.17;6.50;;;10.80;99.90;;;;;;5112314;28;20206;-85
2022/04/27 05:48:05;;;;;;;16.07;5.60;;;10.60;99.90;;;;;;5112199;28;20247;-84
2022/04/27 05:50:34;;;;;;;15.30;6.10;;;10.50;99.90;;;;;;5112574;28;20194;-85
2022/04/27 05:53:03;;;;;;;8.57;5.83;;;10.50;99.90;;;;;;5124806;28;20650;-85
2022/04/27 05:55:29;;;;;;;15.77;6.30;;;10.50;99.90;;;;;;5132535;28;20221;-85
2022/04/27 05:57:56;;;;;;;10.10;6.27;;;10.50;99.90;;;;;;5132933;28;20662;-85
2022/04/27 06:00:24;;;;;;;9.23;5.10;;;10.40;97.70;;;;;;5133397;28;20216;-85
2022/04/27 06:02:52;;;;;;;12.00;6.23;;;10.20;99.90;;;;;;5133846;28;20193;-85
2022/04/27 06:05:19;;;;;;;8.77;5.70;;;10.10;99.90;;;;;;5133471;27;20281;-85
2022/04/27 06:07:46;;;;;;;10.27;6.40;;;10.00;99.90;;;;;;5136097;27;20697;-85
2022/04/27 06:10:13;;;;;;;8.40;5.53;;;10.00;99.90;;;;;;5136957;27;20250;-85
2022/04/27 06:12:47;;;;;;;9.07;5.67;;;9.90;99.90;;;;;;5137151;27;20231;-85
2022/04/27 06:15:15;;;;;;;9.70;6.10;;;9.90;99.90;;;;;;5136949;27;20220;-85
2022/04/27 06:17:42;;;;;;;8.77;6.17;;;10.20;99.90;;;;;;5136652;27;20292;-86
2022/04/27 06:20:12;;;;;;;12.17;5.20;;;11.60;1.00;;;;;;5136973;27;20201;-86
2022/04/27 06:22:39;;;;;;;10.60;5.22;;;13.30;1.00;;;;;;5137032;27;20193;-87
2022/04/27 06:25:07;;;;;;;8.52;5.47;;;15.00;1.00;;;;;;5136758;27;20190;-87
2022/04/27 06:27:34;;;;;;;9.32;5.97;;;16.70;99.90;;;;;;5135981;27;20822;-87
2022/04/27 06:30:01;;;;;;;12.40;6.05;;;18.10;63.20;;;;;;5136274;27;20161;-87
2022/04/27 06:32:31;;;;;;;8.25;5.65;;;19.10;1.00;;;;;;5136016;27;20197;-87
2022/04/27 06:34:59;;;;;;;8.27;6.00;;;20.10;1.00;;;;;;5136654;27;20196;-87
2022/04/27 06:37:27;;;;;;;10.18;6.80;;;20.90;1.00;;;;;;5136606;27;20218;-88
2022/04/27 06:39:54;;;;;;;9.00;5.97;;;22.10;1.00;;;;;;5136916;27;20223;-87
2022/04/27 06:42:21;;;;;;;9.13;6.50;;;23.30;1.00;;;;;;5136676;27;20282;-87
2022/04/27 06:44:49;;;;;;;8.50;5.95;;;24.10;1.00;;;;;;5136148;27;20186;-88
2022/04/27 06:47:16;;;;;;;8.43;6.53;;;25.00;1.00;;;;;;5134673;27;20666;-87
2022/04/27 06:49:43;;;;;;;7.85;5.90;;;25.90;1.00;;;;;;5135601;27;20222;-87
2022/04/27 06:52:10;;;;;;;11.82;7.90;;;26.80;1.00;;;;;;5135554;27;20201;-88
2022/04/27 06:54:38;;;;;;;19.48;6.72;;;27.70;1.00;;;;;;5136457;27;20221;-88
2022/04/27 06:57:05;;;;;;;60.65;25.23;;;28.70;1.00;;;;;;5136196;27;20249;-87
2022/04/27 06:59:32;;;;;;;19.27;10.48;;;29.60;1.00;;;;;;5136180;27;20251;-87
2022/04/27 07:01:59;;;;;;;19.55;9.20;;;30.30;1.00;;;;;;5136107;27;20285;-86
2022/04/27 07:04:26;;;;;;;14.23;9.25;;;30.80;1.00;;;;;;5135847;27;20251;-88
2022/04/27 07:06:54;;;;;;;62.55;23.88;;;31.00;1.00;;;;;;5135722;27;20191;-87
2022/04/27 07:09:22;;;;;;;25.75;11.77;;;31.10;1.00;;;;;;5135743;27;20238;-87
2022/04/27 07:11:50;;;;;;;10.23;7.68;;;31.20;1.00;;;;;;5136091;27;20187;-88
2022/04/27 07:14:17;;;;;;;12.90;7.78;;;31.50;1.00;;;;;;5135985;27;20226;-89
2022/04/27 07:16:44;;;;;;;13.23;7.65;;;31.80;1.00;;;;;;5135513;27;20241;-88
2022/04/27 07:19:11;;;;;;;8.55;7.07;;;32.30;1.00;;;;;;5135864;27;20189;-88
2022/04/27 07:21:38;;;;;;;20.02;12.02;;;32.80;1.00;;;;;;5131756;27;20297;-88
2022/04/27 07:24:06;;;;;;;62.28;29.27;;;33.20;1.00;;;;;;5123621;27;20226;-89
2022/04/27 07:26:33;;;;;;;37.67;18.90;;;33.50;1.00;;;;;;5117055;27;20194;-87
2022/04/27 07:29:02;;;;;;;23.42;13.77;;;33.60;1.00;;;;;;5135018;27;20278;-88
2022/04/27 07:31:29;;;;;;;24.65;14.88;;;33.60;1.00;;;;;;5122867;27;20229;-87
2022/04/27 07:33:55;;;;;;;16.50;10.80;;;33.60;1.00;;;;;;5129891;27;20275;-88
2022/04/27 07:36:22;;;;;;;15.13;11.18;;;33.60;1.00;;;;;;5135461;27;20255;-86
2022/04/27 07:38:49;;;;;;;48.80;28.77;;;33.50;1.00;;;;;;5131013;27;20222;-87
2022/04/27 07:41:16;;;;;;;10.98;9.25;;;33.60;1.00;;;;;;5134715;27;20608;-88
2022/04/27 07:43:43;;;;;;;28.58;16.90;;;33.40;1.00;;;;;;5134646;27;20665;-86
2022/04/27 07:46:12;;;;;;;35.22;21.45;;;33.30;1.00;;;;;;5134905;27;20281;-87
2022/04/27 07:48:38;;;;;;;10.52;8.45;;;33.40;1.00;;;;;;5134383;27;20631;-87
2022/04/27 07:51:06;;;;;;;13.30;7.93;;;33.70;1.00;;;;;;5134822;27;20225;-86
2022/04/27 07:53:34;;;;;;;10.60;7.85;;;33.90;1.00;;;;;;5134827;27;20558;-88
2022/04/27 07:56:01;;;;;;;8.23;7.40;;;33.90;1.00;;;;;;5124102;27;20195;-90
2022/04/27 07:58:28;;;;;;;10.32;8.07;;;34.10;1.00;;;;;;5136745;27;20209;-90
2022/04/27 08:00:57;;;;;;;13.27;9.23;;;34.00;1.00;;;;;;5135856;27;20238;-91
2022/04/27 08:03:26;;;;;;;19.38;13.23;;;34.00;1.00;;;;;;5134871;27;20193;-88
2022/04/27 08:05:53;;;;;;;23.35;15.68;;;34.20;1.00;;;;;;5134717;27;20254;-87
2022/04/27 08:08:20;;;;;;;14.13;10.95;;;34.60;1.00;;;;;;5134776;27;20229;-87
2022/04/27 08:10:47;;;;;;;9.85;8.20;;;34.70;1.00;;;;;;5134766;27;20225;-86
2022/04/27 08:13:15;;;;;;;11.20;7.78;;;34.80;1.00;;;;;;5134604;27;20277;-87
2022/04/27 08:15:42;;;;;;;15.65;9.05;;;35.00;1.00;;;;;;5134782;27;20217;-87
2022/04/27 08:18:09;;;;;;;8.85;7.95;;;35.30;1.00;;;;;;5134571;27;20209;-86
2022/04/27 08:23:24;;;;;;;9.35;8.02;;;35.00;1.00;;;;;;5134276;27;20172;-87
2022/04/27 08:25:52;;;;;;;9.95;8.52;;;34.70;1.00;;;;;;5134035;27;21005;-87
2022/04/27 08:28:20;;;;;;;10.23;7.35;;;34.30;1.00;;;;;;5133102;27;20186;-86
2022/04/27 08:30:48;;;;;;;9.52;8.13;;;34.00;1.00;;;;;;5134275;27;20241;-87
2022/04/27 08:33:15;;;;;;;10.45;8.40;;;34.00;1.00;;;;;;5133925;27;20190;-86
2022/04/27 08:35:44;;;;;;;13.15;8.90;;;33.90;1.00;;;;;;5133191;27;20612;-87
2022/04/27 08:38:11;;;;;;;14.25;11.73;;;34.00;1.00;;;;;;5129435;27;20304;-88
2022/04/27 08:40:40;;;;;;;8.65;7.78;;;34.00;1.00;;;;;;5130878;27;20524;-84
2022/04/27 08:43:09;;;;;;;9.48;8.05;;;34.00;1.00;;;;;;5128380;27;20616;-86
2022/04/27 08:45:37;;;;;;;10.93;7.50;;;34.00;1.00;;;;;;5133917;27;20757;-86
2022/04/27 08:48:05;;;;;;;12.27;8.60;;;34.10;1.00;;;;;;5133601;27;20224;-88
2022/04/27 08:50:32;;;;;;;9.02;7.32;;;34.10;1.00;;;;;;5130210;27;20213;-85
2022/04/27 08:53:00;;;;;;;8.05;6.75;;;34.10;1.00;;;;;;5133783;27;20225;-86
2022/04/27 08:55:28;;;;;;;8.60;6.70;;;34.00;1.00;;;;;;5133658;27;20194;-87
2022/04/27 08:57:55;;;;;;;7.55;6.43;;;34.00;1.00;;;;;;5133755;27;20213;-88
2022/04/27 09:00:23;;;;;;;10.52;6.45;;;34.10;1.00;;;;;;5133484;27;20553;-86
2022/04/27 09:02:53;;;;;;;8.93;6.90;;;34.00;1.00;;;;;;5133773;27;20243;-90
2022/04/27 09:05:22;;;;;;;6.97;5.75;;;33.90;1.00;;;;;;5134097;27;20184;-89
2022/04/27 09:07:51;;;;;;;8.35;5.82;;;33.90;1.00;;;;;;5133687;27;20273;-89
2022/04/27 09:10:23;;;;;;;7.95;5.65;;;33.90;1.00;;;;;;5133574;27;20225;-88
2022/04/27 09:12:51;;;;;;;7.38;6.25;;;34.00;1.00;;;;;;5133863;27;20618;-90
2022/04/27 09:15:20;;;;;;;10.90;5.72;;;33.80;1.00;;;;;;5133876;27;20228;-88
2022/04/27 09:20:50;;;;;;;6.40;5.63;;;33.50;1.00;;;;;;5133623;27;20169;-87
2022/04/27 09:23:22;;;;;;;8.80;5.40;;;33.50;1.00;;;;;;5133958;27;20181;-90
2022/04/27 09:25:53;;;;;;;8.80;5.05;;;33.50;1.00;;;;;;5132763;27;20221;-87
2022/04/27 09:28:23;;;;;;;7.78;5.00;;;33.40;1.00;;;;;;5133675;28;20282;-90
2022/04/27 09:30:51;;;;;;;5.40;4.57;;;33.30;1.00;;;;;;5133352;28;20189;-90
2022/04/27 09:33:31;;;;;;;9.40;4.78;;;33.20;1.00;;;;;;5135060;28;20657;-90
2022/04/27 09:35:58;;;;;;;9.38;6.10;;;32.80;1.00;;;;;;5133706;28;20171;-87
2022/04/27 09:38:26;;;;;;;5.82;4.75;;;32.10;1.00;;;;;;5134121;28;20217;-89
2022/04/27 09:40:57;;;;;;;6.50;4.90;;;31.60;1.00;;;;;;5135172;27;20201;-88
2022/04/27 09:43:42;;;;;;;8.38;5.45;;;31.00;1.00;;;;;;5138483;27;20165;-88
2022/04/27 09:46:22;;;;;;;6.68;5.30;;;30.30;1.00;;;;;;5141944;27;20178;-87
2022/04/27 09:49:08;;;;;;;7.68;6.55;;;29.50;1.00;;;;;;5138872;27;20232;-89
2022/04/27 09:51:36;;;;;;;6.82;5.45;;;28.70;1.00;;;;;;5137940;27;20182;-87
2022/04/27 09:54:05;;;;;;;6.40;5.28;;;28.10;1.00;;;;;;5137910;27;20293;-87
2022/04/27 09:56:37;;;;;;;7.82;6.15;;;27.90;1.00;;;;;;5137958;27;20610;-87
2022/04/27 09:59:06;;;;;;;8.68;6.53;;;27.40;1.00;;;;;;5138881;27;20194;-87
2022/04/27 10:01:36;;;;;;;9.13;6.82;;;26.80;1.00;;;;;;5138276;27;20194;-90
2022/04/27 10:04:05;;;;;;;10.35;7.30;;;26.10;1.00;;;;;;5138243;27;20626;-87
2022/04/27 10:06:33;;;;;;;7.68;5.85;;;25.40;1.00;;;;;;5137646;27;20233;-87
2022/04/27 10:09:01;;;;;;;5.63;5.00;;;25.10;1.00;;;;;;5136900;27;20236;-86
2022/04/27 10:11:31;;;;;;;8.45;5.70;;;25.20;1.00;;;;;;5137239;27;20278;-86
2022/04/27 10:14:00;;;;;;;7.20;6.10;;;25.30;1.00;;;;;;5136800;27;20201;-87
2022/04/27 10:16:27;;;;;;;8.55;5.78;;;25.30;1.00;;;;;;5136980;27;20546;-86
2022/04/27 10:18:54;;;;;;;9.07;5.97;;;25.20;1.00;;;;;;5136688;27;20221;-87
2022/04/27 10:21:56;;;;;;;10.77;6.13;;;25.00;1.00;;;;;;5137108;27;20622;-88
2022/04/27 10:24:50;;;;;;;9.88;5.63;;;24.90;1.00;;;;;;5137186;27;20212;-85
2022/04/27 10:27:18;;;;;;;8.82;5.75;;;24.60;1.00;;;;;;5136633;27;20252;-87
2022/04/27 10:29:49;;;;;;;8.45;5.30;;;24.30;1.00;;;;;;5137145;27;20237;-87
2022/04/27 10:32:38;;;;;;;8.50;5.75;;;24.10;1.00;;;;;;5138201;27;20250;-86
2022/04/27 10:35:27;;;;;;;6.63;5.15;;;23.80;1.00;;;;;;5134542;27;20204;-88
2022/04/27 10:37:57;;;;;;;13.25;4.50;;;23.40;1.00;;;;;;5137145;27;20233;-87
2022/04/27 10:40:32;;;;;;;5.72;4.07;;;23.20;1.00;;;;;;5136384;27;20669;-86
2022/04/27 10:43:11;;;;;;;5.03;3.97;;;23.20;1.00;;;;;;5137519;27;20191;-87
2022/04/27 10:45:42;;;;;;;7.75;5.90;;;23.30;1.00;;;;;;5136493;27;20178;-87
2022/04/27 10:48:14;;;;;;;11.68;6.35;;;23.40;1.00;;;;;;5136442;27;20242;-87
2022/04/27 10:50:54;;;;;;;8.50;5.88;;;23.30;1.00;;;;;;5127769;27;20241;-88
2022/04/27 10:53:22;;;;;;;7.80;4.90;;;23.50;1.00;;;;;;5120276;27;20221;-87
2022/04/27 10:55:53;;;;;;;7.35;4.80;;;23.50;1.00;;;;;;5124717;27;20230;-87
2022/04/27 10:58:31;;;;;;;7.38;5.00;;;23.60;1.00;;;;;;5116053;28;20202;-87
2022/04/27 11:01:27;;;;;;;10.77;5.80;;;23.60;1.00;;;;;;5130693;27;20178;-88
2022/04/27 11:04:08;;;;;;;6.57;5.57;;;23.40;1.00;;;;;;5136185;27;20636;-86
2022/04/27 11:07:15;;;;;;;7.32;5.13;;;23.20;1.00;;;;;;5135941;27;20631;-87
2022/04/27 11:10:16;;;;;;;7.47;4.88;;;22.90;1.00;;;;;;5118125;27;20360;-87
2022/04/27 11:12:46;;;;;;;6.40;5.28;;;22.70;1.00;;;;;;5100738;28;20631;-87
2022/04/27 11:15:18;;;;;;;6.38;5.03;;;22.60;1.00;;;;;;5126464;27;20204;-86
2022/04/27 11:17:55;;;;;;;6.43;5.00;;;22.50;1.00;;;;;;5136191;27;20602;-88
2022/04/27 11:20:30;;;;;;;7.40;5.10;;;22.50;1.00;;;;;;5136159;27;20571;-87
2022/04/27 11:22:58;;;;;;;7.40;4.68;;;22.40;1.00;;;;;;5135760;27;20278;-86
2022/04/27 11:25:26;;;;;;;6.05;4.05;;;22.40;1.00;;;;;;5135689;27;20241;-87
2022/04/27 11:27:54;;;;;;;8.13;4.55;;;22.40;1.00;;;;;;5136058;27;20254;-87
2022/04/27 11:30:22;;;;;;;4.97;3.90;;;22.40;1.00;;;;;;5135322;27;20260;-87
2022/04/27 11:32:51;;;;;;;7.38;4.97;;;22.30;1.00;;;;;;5135770;27;20230;-86
2022/04/27 11:35:22;;;;;;;9.25;5.55;;;22.10;1.00;;;;;;5135737;27;20191;-88
2022/04/27 11:37:49;;;;;;;5.70;4.13;;;21.80;1.00;;;;;;5135703;27;20178;-87
2022/04/27 11:40:18;;;;;;;8.95;4.40;;;21.60;1.00;;;;;;5135974;27;20178;-86
2022/04/27 11:42:47;;;;;;;9.20;4.03;;;21.40;1.00;;;;;;5135789;27;20202;-87
2022/04/27 11:45:18;;;;;;;7.57;3.90;;;21.10;1.00;;;;;;5135625;27;20645;-86
2022/04/27 11:47:45;;;;;;;5.75;3.85;;;21.00;1.00;;;;;;5135803;27;20217;-86
2022/04/27 11:50:18;;;;;;;5.20;4.03;;;21.10;1.00;;;;;;5135937;27;20266;-87
2022/04/27 11:52:45;;;;;;;4.75;4.07;;;21.20;1.00;;;;;;5135430;27;20179;-87
2022/04/27 11:55:15;;;;;;;7.25;4.38;;;21.40;1.00;;;;;;5135688;27;20254;-86
2022/04/27 11:57:43;;;;;;;8.63;4.50;;;21.50;1.00;;;;;;5135882;27;20231;-86
2022/04/27 12:00:12;;;;;;;5.95;4.30;;;21.50;1.00;;;;;;5135100;27;20326;-87
2022/04/27 12:02:42;;;;;;;6.20;4.00;;;21.60;1.00;;;;;;5134907;27;20187;-87
2022/04/27 12:05:10;;;;;;;4.93;4.15;;;21.60;1.00;;;;;;5134733;27;20737;-88
2022/04/27 12:07:38;;;;;;;7.22;3.80;;;21.60;1.00;;;;;;5135127;27;20202;-90
2022/04/27 12:10:09;;;;;;;5.85;4.10;;;21.60;1.00;;;;;;5134748;27;20232;-88
2022/04/27 12:12:39;;;;;;;5.90;4.45;;;21.60;1.00;;;;;;5132603;27;20187;-87
2022/04/27 12:15:08;;;;;;;5.18;4.00;;;21.50;1.00;;;;;;5124435;27;20665;-87
2022/04/27 12:17:52;;;;;;;8.75;4.28;;;21.40;1.00;;;;;;5134293;27;20203;-86
2022/04/27 12:20:28;;;;;;;8.07;4.63;;;21.40;1.00;;;;;;5131041;27;20261;-89
2022/04/27 12:22:58;;;;;;;6.20;4.25;;;21.40;1.00;;;;;;5134119;27;20223;-88
2022/04/27 12:25:41;;;;;;;8.23;4.78;;;21.30;1.00;;;;;;5134274;27;20263;-87
2022/04/27 12:28:11;;;;;;;5.88;4.05;;;21.30;1.00;;;;;;5133919;27;20540;-85
2022/04/27 12:30:47;;;;;;;7.30;4.25;;;21.30;1.00;;;;;;5136078;27;20256;-87
2022/04/27 12:33:16;;;;;;;8.50;6.30;;;21.20;1.00;;;;;;5134954;27;20265;-85
2022/04/27 12:38:30;;;;;;;4.95;3.90;;;21.00;1.00;;;;;;5134226;27;20205;-85
2022/04/27 12:40:59;;;;;;;8.80;5.40;;;20.90;1.00;;;;;;5133909;27;20655;-85
2022/04/27 12:43:27;;;;;;;6.05;4.03;;;20.90;1.00;;;;;;5133806;27;20183;-87
2022/04/27 12:46:11;;;;;;;9.43;3.67;;;20.90;1.00;;;;;;5133454;27;20209;-85
2022/04/27 12:48:39;;;;;;;6.70;3.63;;;20.80;1.00;;;;;;5134150;27;20214;-88
2022/04/27 12:51:08;;;;;;;5.90;4.07;;;20.70;1.00;;;;;;5133687;27;20216;-85
2022/04/27 12:53:38;;;;;;;5.50;3.60;;;20.70;1.00;;;;;;5132348;27;20650;-85
2022/04/27 12:56:08;;;;;;;5.95;3.33;;;20.70;1.00;;;;;;5120888;27;20226;-85
2022/04/27 12:58:35;;;;;;;5.18;3.80;;;20.80;1.00;;;;;;5133135;27;20210;-85
2022/04/27 13:01:02;;;;;;;8.32;4.43;;;20.70;1.00;;;;;;5133354;27;20268;-86
2022/04/27 13:03:29;;;;;;;6.20;3.53;;;20.70;1.00;;;;;;5132174;27;20681;-87
2022/04/27 13:05:57;;;;;;;4.95;3.60;;;20.80;1.00;;;;;;5132956;27;20194;-88
2022/04/27 13:08:26;;;;;;;5.70;3.42;;;20.70;1.00;;;;;;5131981;27;20201;-87
2022/04/27 13:13:39;;;;;;;3.88;3.20;;;20.60;1.00;;;;;;5132674;27;20181;-84
2022/04/27 13:16:07;;;;;;;8.98;4.07;;;20.60;1.00;;;;;;5130358;27;21269;-84
2022/04/27 13:18:33;;;;;;;6.50;3.90;;;20.50;1.00;;;;;;5132507;27;20209;-86
2022/04/27 13:21:00;;;;;;;7.57;3.75;;;20.50;1.00;;;;;;5132500;27;20624;-85
2022/04/27 13:23:27;;;;;;;6.93;4.15;;;20.40;1.00;;;;;;5132695;27;20221;-84
2022/04/27 13:25:56;;;;;;;6.97;3.92;;;20.20;1.00;;;;;;5132262;27;20650;-85